createdAt,value
2022-09-23T00:02:10.947Z,6.56
2022-09-23T00:04:39.218Z,6.54
2022-09-23T00:07:07.444Z,6.54
2022-09-23T00:09:35.641Z,6.52
2022-09-23T00:12:08.708Z,6.52
2022-09-23T00:14:39.132Z,6.49
2022-09-23T00:17:07.420Z,6.46
2022-09-23T00:19:38.136Z,6.44
2022-09-23T00:22:07.578Z,6.42
2022-09-23T00:24:35.818Z,6.40
2022-09-23T00:27:04.147Z,6.39
2022-09-23T00:29:32.432Z,6.38
2022-09-23T00:32:00.666Z,6.38
2022-09-23T00:34:29.977Z,6.36
2022-09-23T00:36:58.194Z,6.35
2022-09-23T00:39:26.711Z,6.34
2022-09-23T00:41:55.018Z,6.32
2022-09-23T00:44:42.318Z,6.30
2022-09-23T00:47:17.060Z,6.28
2022-09-23T00:49:46.885Z,6.26
2022-09-23T00:52:18.308Z,6.25
2022-09-23T00:54:47.561Z,6.24
2022-09-23T00:57:16.727Z,6.24
2022-09-23T00:59:44.980Z,6.24
2022-09-23T01:02:14.447Z,6.24
2022-09-23T01:04:43.409Z,6.25
2022-09-23T01:07:11.660Z,6.27
2022-09-23T01:09:40.341Z,6.27
2022-09-23T01:12:09.354Z,6.29
2022-09-23T01:15:00.769Z,6.31
2022-09-23T01:17:35.276Z,6.31
2022-09-23T01:20:31.320Z,6.31
2022-09-23T01:23:18.446Z,6.31
2022-09-23T01:25:55.935Z,6.31
2022-09-23T01:28:42.742Z,6.30
2022-09-23T01:31:13.995Z,6.30
2022-09-23T01:33:57.728Z,6.29
2022-09-23T01:36:25.871Z,6.28
2022-09-23T01:39:09.625Z,6.25
2022-09-23T01:41:56.754Z,6.25
2022-09-23T01:44:30.666Z,6.23
2022-09-23T01:47:02.838Z,6.23
2022-09-23T01:49:54.400Z,6.21
2022-09-23T01:52:33.106Z,6.23
2022-09-23T01:55:08.863Z,6.22
2022-09-23T01:57:46.227Z,6.22
2022-09-23T02:00:16.082Z,6.23
2022-09-23T02:02:57.966Z,6.23
2022-09-23T02:05:33.198Z,6.23
2022-09-23T02:08:04.728Z,6.24
2022-09-23T02:10:36.305Z,6.24
2022-09-23T02:13:09.637Z,6.26
2022-09-23T02:15:42.204Z,6.29
2022-09-23T02:18:15.448Z,6.30
2022-09-23T02:20:44.031Z,6.32
2022-09-23T02:23:13.843Z,6.35
2022-09-23T02:25:55.273Z,6.38
2022-09-23T02:28:48.393Z,6.43
2022-09-23T02:31:20.414Z,6.47
2022-09-23T02:33:59.248Z,6.50
2022-09-23T02:36:33.153Z,6.55
2022-09-23T02:39:07.845Z,6.59
2022-09-23T02:41:46.543Z,6.63
2022-09-23T02:44:16.490Z,6.68
2022-09-23T02:46:45.345Z,6.71
2022-09-23T02:49:13.847Z,6.76
2022-09-23T02:51:42.084Z,6.79
2022-09-23T02:54:15.091Z,6.82
2022-09-23T02:56:43.756Z,6.85
2022-09-23T02:59:12.796Z,6.89
2022-09-23T03:01:41.016Z,6.89
2022-09-23T03:04:18.384Z,6.90
2022-09-23T03:07:01.273Z,6.90
2022-09-23T03:09:29.496Z,6.89
2022-09-23T03:12:14.121Z,6.89
2022-09-23T03:14:54.206Z,6.90
2022-09-23T03:17:27.676Z,6.90
2022-09-23T03:19:59.163Z,6.90
2022-09-23T03:22:30.473Z,6.89
2022-09-23T03:25:02.857Z,6.88
2022-09-23T03:27:33.145Z,6.89
2022-09-23T03:30:01.834Z,6.88
2022-09-23T03:32:32.223Z,6.88
2022-09-23T03:35:01.702Z,6.88
2022-09-23T03:37:31.518Z,6.90
2022-09-23T03:40:13.374Z,6.92
2022-09-23T03:42:42.557Z,6.92
2022-09-23T03:45:14.881Z,6.93
2022-09-23T03:47:43.083Z,6.94
2022-09-23T03:50:13.576Z,6.95
2022-09-23T03:52:42.049Z,6.95
2022-09-23T03:55:10.654Z,6.95
2022-09-23T03:57:38.851Z,6.95
2022-09-23T04:00:07.817Z,6.93
2022-09-23T04:02:42.444Z,6.92
2022-09-23T04:05:11.602Z,6.91
2022-09-23T04:07:40.006Z,6.89
2022-09-23T04:10:10.233Z,6.89
2022-09-23T04:12:38.465Z,6.86
2022-09-23T04:15:07.295Z,6.83
2022-09-23T04:17:35.714Z,6.80
2022-09-23T04:20:04.122Z,6.77
2022-09-23T04:22:33.446Z,6.74
2022-09-23T04:25:02.136Z,6.73
2022-09-23T04:27:34.198Z,6.72
2022-09-23T04:30:05.481Z,6.70
2022-09-23T04:32:33.833Z,6.70
2022-09-23T04:35:02.067Z,6.69
2022-09-23T04:37:30.689Z,6.68
2022-09-23T04:39:59.010Z,6.70
2022-09-23T04:42:28.744Z,6.70
2022-09-23T04:44:57.062Z,6.72
2022-09-23T04:47:25.340Z,6.77
2022-09-23T04:49:56.615Z,6.82
2022-09-23T04:52:27.868Z,6.90
2022-09-23T04:54:56.001Z,6.94
2022-09-23T04:57:24.772Z,7.00
2022-09-23T04:59:54.735Z,7.06
2022-09-23T05:02:23.446Z,7.10
2022-09-23T05:04:51.726Z,7.12
2022-09-23T05:07:19.956Z,7.14
2022-09-23T05:09:48.303Z,7.16
2022-09-23T05:12:16.462Z,7.19
2022-09-23T05:14:44.687Z,7.22
2022-09-23T05:17:12.856Z,7.24
2022-09-23T05:19:41.070Z,7.26
2022-09-23T05:22:09.471Z,7.28
2022-09-23T05:24:37.910Z,7.30
2022-09-23T05:27:09.360Z,7.33
2022-09-23T05:29:39.363Z,7.37
2022-09-23T05:32:08.281Z,7.42
2022-09-23T05:34:36.544Z,7.47
2022-09-23T05:37:05.530Z,7.51
2022-09-23T05:39:33.758Z,7.56
2022-09-23T05:42:02.182Z,7.59
2022-09-23T05:44:30.380Z,7.65
2022-09-23T05:46:58.672Z,7.71
2022-09-23T05:49:42.856Z,7.77
2022-09-23T05:52:15.122Z,7.84
2022-09-23T05:54:43.655Z,7.90
2022-09-23T05:57:12.145Z,7.96
2022-09-23T05:59:40.503Z,7.99
2022-09-23T06:02:09.331Z,8.00
2022-09-23T06:04:37.656Z,8.00
2022-09-23T06:07:05.895Z,8.01
2022-09-23T06:09:36.527Z,8.04
2022-09-23T06:12:06.629Z,8.08
2022-09-23T06:14:34.801Z,8.16
2022-09-23T06:17:03.052Z,8.24
2022-09-23T06:19:31.339Z,8.32
2022-09-23T06:21:59.577Z,8.39
2022-09-23T06:24:31.290Z,8.44
2022-09-23T06:27:01.397Z,8.48
2022-09-23T06:29:32.569Z,8.53
2022-09-23T06:32:00.956Z,8.60
2022-09-23T06:34:29.969Z,8.67
2022-09-23T06:37:00.908Z,8.74
2022-09-23T06:39:31.342Z,8.79
2022-09-23T06:41:59.507Z,8.86
2022-09-23T06:44:28.988Z,8.93
2022-09-23T06:46:57.316Z,9.01
2022-09-23T06:49:25.636Z,9.12
2022-09-23T06:51:56.465Z,9.23
2022-09-23T06:54:24.672Z,9.46
2022-09-23T06:56:52.912Z,9.73
2022-09-23T06:59:21.122Z,9.99
2022-09-23T07:01:50.888Z,10.22
2022-09-23T07:04:19.257Z,10.44
2022-09-23T07:06:47.476Z,10.65
2022-09-23T07:09:15.716Z,10.87
2022-09-23T07:11:44.018Z,10.98
2022-09-23T07:14:13.815Z,11.10
2022-09-23T07:16:42.012Z,11.23
2022-09-23T07:19:10.870Z,11.36
2022-09-23T07:21:39.218Z,11.64
2022-09-23T07:24:07.868Z,11.85
2022-09-23T07:26:36.040Z,11.98
2022-09-23T07:29:07.276Z,12.06
2022-09-23T07:31:39.556Z,12.12
2022-09-23T07:34:12.013Z,12.14
2022-09-23T07:36:41.271Z,12.18
2022-09-23T07:39:11.645Z,12.37
2022-09-23T07:41:41.851Z,12.50
2022-09-23T07:44:11.391Z,12.60
2022-09-23T07:46:40.421Z,12.73
2022-09-23T07:49:08.919Z,12.77
2022-09-23T07:51:38.464Z,12.81
2022-09-23T07:54:10.921Z,13.06
2022-09-23T07:56:39.585Z,13.29
2022-09-23T07:59:10.009Z,13.46
2022-09-23T08:01:40.715Z,13.64
2022-09-23T08:04:12.092Z,13.73
2022-09-23T08:06:41.741Z,13.78
2022-09-23T08:09:10.852Z,13.80
2022-09-23T08:11:42.301Z,13.78
2022-09-23T08:14:12.624Z,13.92
2022-09-23T08:16:41.342Z,14.08
2022-09-23T08:19:09.670Z,14.13
2022-09-23T08:21:39.571Z,14.19
2022-09-23T08:24:13.396Z,14.44
2022-09-23T08:26:41.684Z,14.88
2022-09-23T08:29:12.199Z,15.16
2022-09-23T08:31:40.499Z,15.26
2022-09-23T08:34:09.073Z,15.22
2022-09-23T08:36:37.751Z,14.91
2022-09-23T08:39:06.390Z,14.72
2022-09-23T08:41:40.718Z,14.81
2022-09-23T08:44:12.216Z,15.24
2022-09-23T08:47:00.633Z,15.68
2022-09-23T08:49:35.179Z,16.14
2022-09-23T08:52:07.010Z,16.58
2022-09-23T08:54:35.238Z,17.00
2022-09-23T08:57:04.937Z,17.00
2022-09-23T08:59:41.203Z,16.88
2022-09-23T09:02:20.600Z,16.92
2022-09-23T09:04:58.457Z,17.18
2022-09-23T09:07:36.678Z,17.58
2022-09-23T09:10:27.025Z,17.97
2022-09-23T09:13:01.858Z,18.41
2022-09-23T09:15:30.138Z,18.62
2022-09-23T09:17:59.487Z,18.57
2022-09-23T09:20:40.063Z,18.36
2022-09-23T09:23:11.693Z,18.13
2022-09-23T09:25:39.876Z,18.03
2022-09-23T09:28:20.410Z,17.83
2022-09-23T09:30:53.575Z,17.81
2022-09-23T09:33:25.241Z,17.80
2022-09-23T09:36:09.220Z,17.88
2022-09-23T09:38:37.627Z,18.01
2022-09-23T09:41:27.668Z,17.90
2022-09-23T09:43:59.438Z,17.82
2022-09-23T09:46:45.433Z,17.76
2022-09-23T09:49:23.549Z,17.51
2022-09-23T09:52:11.778Z,17.53
2022-09-23T09:54:39.948Z,17.89
2022-09-23T09:57:15.135Z,18.24
2022-09-23T09:59:44.395Z,18.49
2022-09-23T10:02:32.877Z,18.52
2022-09-23T10:05:02.902Z,18.60
2022-09-23T10:07:32.409Z,18.47
2022-09-23T10:10:34.450Z,18.24
2022-09-23T10:13:15.274Z,18.00
2022-09-23T10:15:45.474Z,17.87
2022-09-23T10:18:19.867Z,17.66
2022-09-23T10:20:48.585Z,17.40
2022-09-23T10:23:23.854Z,17.07
2022-09-23T10:26:00.318Z,16.71
2022-09-23T10:28:37.939Z,16.40
2022-09-23T10:31:12.692Z,16.18
2022-09-23T10:33:42.609Z,16.00
2022-09-23T10:36:11.354Z,15.86
2022-09-23T10:38:39.733Z,15.86
2022-09-23T10:41:46.870Z,15.97
2022-09-23T10:44:46.030Z,16.17
2022-09-23T10:47:14.894Z,16.38
2022-09-23T10:49:44.015Z,16.48
2022-09-23T10:52:39.336Z,16.41
2022-09-23T10:55:26.589Z,16.35
2022-09-23T10:58:13.969Z,16.47
2022-09-23T11:00:55.315Z,16.70
2022-09-23T11:03:23.953Z,16.71
2022-09-23T11:05:52.316Z,16.68
2022-09-23T11:08:32.891Z,16.54
2022-09-23T11:11:04.622Z,16.39
2022-09-23T11:13:54.799Z,16.26
2022-09-23T11:16:32.412Z,16.15
2022-09-23T11:19:08.424Z,16.07
2022-09-23T11:21:57.366Z,16.03
2022-09-23T11:24:25.546Z,16.01
2022-09-23T11:26:54.027Z,15.98
2022-09-23T11:29:22.298Z,15.91
2022-09-23T11:32:09.349Z,15.89
2022-09-23T11:34:43.738Z,15.83
2022-09-23T11:37:19.126Z,15.80
2022-09-23T11:39:55.556Z,15.74
2022-09-23T11:42:29.799Z,15.70
2022-09-23T11:45:00.042Z,15.70
2022-09-23T11:47:43.683Z,15.71
2022-09-23T11:50:19.630Z,15.82
2022-09-23T11:52:51.938Z,16.00
2022-09-23T11:55:27.671Z,16.13
2022-09-23T11:58:21.961Z,16.35
2022-09-23T12:01:16.512Z,16.88
2022-09-23T12:03:45.965Z,16.98
2022-09-23T12:06:19.602Z,16.94
2022-09-23T12:08:50.839Z,16.86
2022-09-23T12:11:22.185Z,16.73
2022-09-23T12:14:05.818Z,16.60
2022-09-23T12:16:34.058Z,16.45
2022-09-23T12:19:11.830Z,16.44
2022-09-23T12:21:51.114Z,16.55
2022-09-23T12:24:36.422Z,16.78
2022-09-23T12:27:07.286Z,17.16
2022-09-23T12:29:36.535Z,17.17
2022-09-23T12:32:10.235Z,17.20
2022-09-23T12:34:52.245Z,17.50
2022-09-23T12:37:34.331Z,17.77
2022-09-23T12:40:06.994Z,18.13
2022-09-23T12:42:40.237Z,18.24
2022-09-23T12:45:19.880Z,18.04
2022-09-23T12:47:48.153Z,17.71
2022-09-23T12:50:35.357Z,17.34
2022-09-23T12:53:23.531Z,17.00
2022-09-23T12:55:54.262Z,16.68
2022-09-23T12:58:49.076Z,16.51
2022-09-23T13:01:19.722Z,16.37
2022-09-23T13:04:08.357Z,16.26
2022-09-23T13:06:40.296Z,16.21
2022-09-23T13:09:13.826Z,16.17
2022-09-23T13:11:43.995Z,16.04
2022-09-23T13:14:16.240Z,15.91
2022-09-23T13:16:46.112Z,15.80
2022-09-23T13:19:26.771Z,15.69
2022-09-23T13:21:55.013Z,15.61
2022-09-23T13:24:23.215Z,15.54
2022-09-23T13:26:53.676Z,15.51
2022-09-23T13:29:28.032Z,15.50
2022-09-23T13:31:58.081Z,15.51
2022-09-23T13:34:29.250Z,15.51
2022-09-23T13:36:57.533Z,15.45
2022-09-23T13:39:27.869Z,15.46
2022-09-23T13:42:01.169Z,15.41
2022-09-23T13:44:30.022Z,15.55
2022-09-23T13:46:59.941Z,15.73
2022-09-23T13:49:37.252Z,15.90
2022-09-23T13:52:05.460Z,16.05
2022-09-23T13:54:38.041Z,16.13
2022-09-23T13:57:06.516Z,16.26
2022-09-23T13:59:41.403Z,16.13
2022-09-23T14:02:13.855Z,15.87
2022-09-23T14:04:43.419Z,15.71
2022-09-23T14:07:13.559Z,15.59
2022-09-23T14:09:43.930Z,15.37
2022-09-23T14:12:13.253Z,15.12
2022-09-23T14:14:43.477Z,14.89
2022-09-23T14:17:17.099Z,14.80
2022-09-23T14:19:45.771Z,14.79
2022-09-23T14:22:23.677Z,14.69
2022-09-23T14:24:52.645Z,14.53
2022-09-23T14:27:27.577Z,14.44
2022-09-23T14:29:56.272Z,14.33
2022-09-23T14:32:27.779Z,14.23
2022-09-23T14:35:04.107Z,14.12
2022-09-23T14:37:55.375Z,14.06
2022-09-23T14:40:26.810Z,14.14
2022-09-23T14:43:00.382Z,14.26
2022-09-23T14:45:31.863Z,14.31
2022-09-23T14:48:02.343Z,14.29
2022-09-23T14:50:38.016Z,14.23
2022-09-23T14:53:29.535Z,14.11
2022-09-23T14:56:06.951Z,13.88
2022-09-23T14:58:51.960Z,13.68
2022-09-23T15:01:33.317Z,13.55
2022-09-23T15:04:20.650Z,13.40
2022-09-23T15:06:48.915Z,13.25
2022-09-23T15:09:20.333Z,13.17
2022-09-23T15:11:51.978Z,13.11
2022-09-23T15:14:37.372Z,13.02
2022-09-23T15:17:14.574Z,12.86
2022-09-23T15:19:43.158Z,12.77
2022-09-23T15:22:12.982Z,12.69
2022-09-23T15:24:43.449Z,12.60
2022-09-23T15:27:21.202Z,12.47
2022-09-23T15:29:50.075Z,12.36
2022-09-23T15:32:18.312Z,12.21
2022-09-23T15:34:48.763Z,12.10
2022-09-23T15:37:18.003Z,11.99
2022-09-23T15:39:46.237Z,11.88
2022-09-23T15:42:14.485Z,11.72
2022-09-23T15:44:42.687Z,11.60
2022-09-23T15:47:15.063Z,11.46
2022-09-23T15:49:46.834Z,11.32
2022-09-23T15:52:16.178Z,11.20
2022-09-23T15:54:44.486Z,11.11
2022-09-23T15:57:12.947Z,11.01
2022-09-23T15:59:41.195Z,10.87
2022-09-23T16:02:15.855Z,10.75
2022-09-23T16:04:47.452Z,10.61
2022-09-23T16:07:17.284Z,10.51
2022-09-23T16:09:45.635Z,10.47
2022-09-23T16:12:14.035Z,10.43
2022-09-23T16:14:42.239Z,10.37
2022-09-23T16:17:13.471Z,10.33
2022-09-23T16:19:41.715Z,10.27
2022-09-23T16:22:10.715Z,10.21
2022-09-23T16:24:40.647Z,10.12
2022-09-23T16:27:13.013Z,10.06
2022-09-23T16:29:41.235Z,10.00
2022-09-23T16:32:09.487Z,9.93
2022-09-23T16:34:37.673Z,9.88
2022-09-23T16:37:06.849Z,9.85
2022-09-23T16:39:35.065Z,9.83
2022-09-23T16:42:03.609Z,9.80
2022-09-23T16:44:33.320Z,9.76
2022-09-23T16:47:01.582Z,9.69
2022-09-23T16:49:29.758Z,9.60
2022-09-23T16:51:58.684Z,9.55
2022-09-23T16:54:26.863Z,9.50
2022-09-23T16:56:55.351Z,9.47
2022-09-23T16:59:43.488Z,9.41
2022-09-23T17:02:31.101Z,9.38
2022-09-23T17:05:01.624Z,9.34
2022-09-23T17:07:32.140Z,9.30
2022-09-23T17:10:00.380Z,9.27
2022-09-23T17:12:32.613Z,9.24
2022-09-23T17:15:01.588Z,9.20
2022-09-23T17:17:30.065Z,9.16
2022-09-23T17:19:58.218Z,9.10
2022-09-23T17:22:29.682Z,9.04
2022-09-23T17:25:00.651Z,8.98
2022-09-23T17:27:28.974Z,8.93
2022-09-23T17:29:57.173Z,8.89
2022-09-23T17:32:26.219Z,8.85
2022-09-23T17:34:54.452Z,8.82
2022-09-23T17:37:22.682Z,8.82
2022-09-23T17:39:51.038Z,8.78
2022-09-23T17:42:19.591Z,8.77
2022-09-23T17:44:48.410Z,8.76
2022-09-23T17:47:16.687Z,8.74
2022-09-23T17:49:47.098Z,8.72
2022-09-23T17:52:15.572Z,8.72
2022-09-23T17:54:43.766Z,8.72
2022-09-23T17:57:12.740Z,8.71
2022-09-23T17:59:40.992Z,8.72
2022-09-23T18:02:14.939Z,8.71
2022-09-23T18:04:43.861Z,8.69
2022-09-23T18:07:12.024Z,8.67
2022-09-23T18:09:40.269Z,8.66
2022-09-23T18:12:08.575Z,8.65
2022-09-23T18:14:36.906Z,8.61
2022-09-23T18:17:05.106Z,8.60
2022-09-23T18:19:33.300Z,8.59
2022-09-23T18:22:01.768Z,8.56
2022-09-23T18:24:33.689Z,8.54
2022-09-23T18:27:04.090Z,8.52
2022-09-23T18:29:33.102Z,8.50
2022-09-23T18:32:01.799Z,8.48
2022-09-23T18:34:31.173Z,8.44
2022-09-23T18:36:59.433Z,8.41
2022-09-23T18:39:28.507Z,8.38
2022-09-23T18:41:56.734Z,8.35
2022-09-23T18:44:25.134Z,8.31
2022-09-23T18:46:53.395Z,8.28
2022-09-23T18:49:40.386Z,8.24
2022-09-23T18:52:08.579Z,8.21
2022-09-23T18:54:36.785Z,8.17
2022-09-23T18:57:05.400Z,8.14
2022-09-23T18:59:33.717Z,8.12
2022-09-23T19:02:02.655Z,8.11
2022-09-23T19:04:31.031Z,8.09
2022-09-23T19:06:59.288Z,8.07
2022-09-23T19:09:27.575Z,8.06
2022-09-23T19:11:55.854Z,8.05
2022-09-23T19:14:24.114Z,8.04
2022-09-23T19:16:52.411Z,8.04
2022-09-23T19:19:20.637Z,8.03
2022-09-23T19:21:49.090Z,8.03
2022-09-23T19:24:20.260Z,8.02
2022-09-23T19:26:49.000Z,8.02
2022-09-23T19:29:19.765Z,8.02
2022-09-23T19:31:49.233Z,8.01
2022-09-23T19:34:19.186Z,8.01
2022-09-23T19:36:47.927Z,8.00
2022-09-23T19:39:16.471Z,7.99
2022-09-23T19:41:44.765Z,7.99
2022-09-23T19:44:13.063Z,7.99
2022-09-23T19:46:44.638Z,7.99
2022-09-23T19:49:13.504Z,7.98
2022-09-23T19:51:44.311Z,7.99
2022-09-23T19:54:15.032Z,8.00
2022-09-23T19:56:43.241Z,8.01
2022-09-23T19:59:14.176Z,8.03
2022-09-23T20:01:46.753Z,8.04
2022-09-23T20:04:16.049Z,8.06
2022-09-23T20:06:46.119Z,8.07
2022-09-23T20:09:15.094Z,8.08
2022-09-23T20:11:44.444Z,8.09
2022-09-23T20:14:13.145Z,8.11
2022-09-23T20:16:41.439Z,8.13
2022-09-23T20:19:10.014Z,8.14
2022-09-23T20:21:38.308Z,8.16
2022-09-23T20:24:07.800Z,8.17
2022-09-23T20:26:54.985Z,8.18
2022-09-23T20:29:23.682Z,8.20
2022-09-23T20:31:51.912Z,8.20
2022-09-23T20:34:21.494Z,8.20
2022-09-23T20:36:50.252Z,8.21
2022-09-23T20:39:18.465Z,8.22
2022-09-23T20:41:48.360Z,8.22
2022-09-23T20:44:16.599Z,8.23
2022-09-23T20:46:48.786Z,8.25
2022-09-23T20:49:17.877Z,8.25
2022-09-23T20:51:49.924Z,8.26
2022-09-23T20:54:19.408Z,8.26
2022-09-23T20:56:48.053Z,8.27
2022-09-23T20:59:18.174Z,8.25
2022-09-23T21:01:46.988Z,8.28
2022-09-23T21:04:15.465Z,8.27
2022-09-23T21:06:43.849Z,8.26
2022-09-23T21:09:12.105Z,8.25
2022-09-23T21:11:40.650Z,8.23
2022-09-23T21:14:09.030Z,8.23
2022-09-23T21:16:37.441Z,8.21
2022-09-23T21:19:08.275Z,8.20
2022-09-23T21:21:36.466Z,8.19
2022-09-23T21:24:33.653Z,8.16
2022-09-23T21:26:53.478Z,8.14
2022-09-23T21:29:21.960Z,8.11
2022-09-23T21:31:50.382Z,8.09
2022-09-23T21:34:19.549Z,8.08
2022-09-23T21:36:48.590Z,8.05
2022-09-23T21:39:16.878Z,8.02
2022-09-23T21:41:45.459Z,8.00
2022-09-23T21:44:14.027Z,7.99
2022-09-23T21:46:42.333Z,7.96
2022-09-23T21:49:10.628Z,7.93
2022-09-23T21:51:41.380Z,7.91
2022-09-23T21:54:15.832Z,7.90
2022-09-23T21:56:44.584Z,7.88
2022-09-23T21:59:13.289Z,7.83
2022-09-23T22:01:44.731Z,7.80
2022-09-23T22:04:18.054Z,7.76
2022-09-23T22:06:46.654Z,7.72
2022-09-23T22:09:17.190Z,7.68
2022-09-23T22:12:05.122Z,7.63
2022-09-23T22:14:33.895Z,7.60
2022-09-23T22:17:03.919Z,7.56
2022-09-23T22:19:35.542Z,7.53
2022-09-23T22:22:10.097Z,7.49
2022-09-23T22:24:38.428Z,7.47
2022-09-23T22:27:10.790Z,7.44
2022-09-23T22:29:57.745Z,7.42
2022-09-23T22:32:41.147Z,7.40
2022-09-23T22:35:12.031Z,7.39
2022-09-23T22:37:40.303Z,7.38
2022-09-23T22:40:10.686Z,7.36
2022-09-23T22:42:39.635Z,7.36
2022-09-23T22:45:09.193Z,7.34
2022-09-23T22:47:38.398Z,7.33
2022-09-23T22:50:08.355Z,7.32
2022-09-23T22:52:36.717Z,7.31
2022-09-23T22:55:06.909Z,7.30
2022-09-23T22:57:35.346Z,7.29
2022-09-23T23:00:05.219Z,7.28
2022-09-23T23:02:33.552Z,7.26
2022-09-23T23:05:02.824Z,7.25
2022-09-23T23:07:36.340Z,7.24
2022-09-23T23:10:04.885Z,7.22
2022-09-23T23:12:33.787Z,7.21
2022-09-23T23:15:01.997Z,7.19
2022-09-23T23:17:30.215Z,7.18
2022-09-23T23:19:58.717Z,7.15
2022-09-23T23:22:28.651Z,7.13
2022-09-23T23:24:56.902Z,7.11
2022-09-23T23:27:25.130Z,7.09
2022-09-23T23:29:53.338Z,7.08
2022-09-23T23:32:21.639Z,7.06
2022-09-23T23:34:49.875Z,7.04
2022-09-23T23:37:20.883Z,7.02
2022-09-23T23:39:49.499Z,7.01
2022-09-23T23:42:17.938Z,6.99
2022-09-23T23:44:46.233Z,6.99
2022-09-23T23:47:15.296Z,6.98
2022-09-23T23:49:43.485Z,6.96
2022-09-23T23:52:12.156Z,6.95
2022-09-23T23:54:40.374Z,6.95
2022-09-23T23:57:08.560Z,6.93
2022-09-23T23:59:37.109Z,6.92
